Terminal Aerodrome Forecast
Issued by NWS

Home | Current Version | Previous Version | Text Only | Print | Product List | Glossary On
Versions: 1 2 3 4 5 6 7 8 9 10 11 12 13 14 15
000
FTUS45 KRIW 011100
TAFJAC
TAF
KJAC 011140Z 0112/0212 VRB05KT P6SM VCSH SCT020 OVC035
      TEMPO 0113/0116 4SM -SHSNRA BKN020
     FM011800 21010KT P6SM VCSH SCT025 BKN040
     FM020000 17006KT P6SM SCT040
     FM020600 VRB05KT P6SM SCT020 OVC040
      AMD LTD TO CLD VIS AND WIND=

USA.gov is the U.S. government's official web portal to all federal, state and local government web resources and services.